createdAt,value
2023-03-24T00:06:06.409Z,4.65
2023-03-24T00:08:39.478Z,4.20
2023-03-24T00:11:13.232Z,5.05
2023-03-24T00:13:45.021Z,5.82
2023-03-24T00:16:21.172Z,6.45
2023-03-24T00:18:54.613Z,5.32
2023-03-24T00:21:28.103Z,4.18
2023-03-24T00:24:00.312Z,3.63
2023-03-24T00:26:32.043Z,4.88
2023-03-24T00:29:03.666Z,5.00
2023-03-24T00:31:35.725Z,4.53
2023-03-24T00:34:08.480Z,2.22
2023-03-24T00:36:40.164Z,4.63
2023-03-24T00:39:11.546Z,4.97
2023-03-24T00:44:19.917Z,5.32
2023-03-24T00:47:01.567Z,5.65
2023-03-24T00:49:48.435Z,5.90
2023-03-24T00:52:26.797Z,6.32
2023-03-24T00:54:59.885Z,4.80
2023-03-24T00:57:36.480Z,6.25
2023-03-24T01:00:16.109Z,5.15
2023-03-24T01:02:55.072Z,3.80
2023-03-24T01:05:32.781Z,6.28
2023-03-24T01:08:04.829Z,4.07
2023-03-24T01:10:52.088Z,4.63
2023-03-24T01:13:28.887Z,5.10
2023-03-24T01:16:00.539Z,5.55
2023-03-24T01:18:32.163Z,7.47
2023-03-24T01:21:04.055Z,4.65
2023-03-24T01:23:36.122Z,3.53
2023-03-24T01:26:10.356Z,4.18
2023-03-24T01:28:45.382Z,4.15
2023-03-24T01:31:17.686Z,4.82
2023-03-24T01:33:49.035Z,3.70
2023-03-24T01:36:20.541Z,5.82
2023-03-24T01:38:51.956Z,3.70
2023-03-24T01:41:23.643Z,5.68
2023-03-24T01:43:55.048Z,4.65
2023-03-24T01:49:07.747Z,5.67
2023-03-24T01:51:47.964Z,6.57
2023-03-24T01:54:43.252Z,6.25
2023-03-24T01:57:25.922Z,7.03
2023-03-24T01:59:59.753Z,4.82
2023-03-24T02:02:56.426Z,4.43
2023-03-24T02:05:35.982Z,7.97
2023-03-24T02:08:23.307Z,8.43
2023-03-24T02:10:56.982Z,7.18
2023-03-24T02:13:33.424Z,4.45
2023-03-24T02:16:32.278Z,6.22
2023-03-24T02:19:28.168Z,4.50
2023-03-24T02:21:59.538Z,6.20
2023-03-24T02:24:30.737Z,12.65
2023-03-24T02:27:23.055Z,4.40
2023-03-24T02:30:25.842Z,4.78
2023-03-24T02:33:29.471Z,5.32
2023-03-24T02:36:38.574Z,5.57
2023-03-24T02:39:19.298Z,5.03
2023-03-24T02:41:53.942Z,6.30
2023-03-24T02:44:51.093Z,4.72
2023-03-24T02:47:32.713Z,4.32
2023-03-24T02:50:28.454Z,5.68
2023-03-24T02:53:08.858Z,4.80
2023-03-24T02:55:58.254Z,6.88
2023-03-24T03:01:11.037Z,6.45
2023-03-24T03:04:12.117Z,4.47
2023-03-24T03:06:47.126Z,7.85
2023-03-24T03:09:20.520Z,5.90
2023-03-24T03:11:54.199Z,6.32
2023-03-24T03:14:50.704Z,6.10
2023-03-24T03:17:25.338Z,5.07
2023-03-24T03:20:06.491Z,6.18
2023-03-24T03:22:49.211Z,7.63
2023-03-24T03:25:24.669Z,4.60
2023-03-24T03:28:02.617Z,8.20
2023-03-24T03:30:41.677Z,7.38
2023-03-24T03:33:26.517Z,6.32
2023-03-24T03:36:08.218Z,7.75
2023-03-24T03:41:33.143Z,7.43
2023-03-24T03:44:05.302Z,6.53
2023-03-24T03:49:12.480Z,5.85
2023-03-24T03:51:44.036Z,5.85
2023-03-24T03:56:51.473Z,6.18
2023-03-24T03:59:37.712Z,6.97
2023-03-24T04:02:35.728Z,8.27
2023-03-24T04:05:19.398Z,7.38
2023-03-24T04:11:04.313Z,5.43
2023-03-24T04:13:53.412Z,5.43
2023-03-24T04:17:12.501Z,5.93
2023-03-24T04:20:07.162Z,5.68
2023-03-24T04:22:41.473Z,6.63
2023-03-24T04:25:37.821Z,8.65
2023-03-24T04:28:20.702Z,8.05
2023-03-24T04:31:19.434Z,5.82
2023-03-24T04:33:59.836Z,5.95
2023-03-24T04:36:44.017Z,5.40
2023-03-24T04:39:32.384Z,6.70
2023-03-24T04:42:10.293Z,7.50
2023-03-24T04:44:43.285Z,5.40
2023-03-24T04:47:40.136Z,7.13
2023-03-24T04:50:34.262Z,4.45
2023-03-24T04:53:12.015Z,4.00
2023-03-24T04:55:46.702Z,9.45
2023-03-24T04:58:19.354Z,5.45
2023-03-24T05:00:52.916Z,5.15
2023-03-24T05:03:24.485Z,3.72
2023-03-24T05:05:56.330Z,4.75
2023-03-24T05:08:27.944Z,4.00
2023-03-24T05:13:30.700Z,6.45
2023-03-24T05:16:05.455Z,4.25
2023-03-24T05:18:52.023Z,4.88
2023-03-24T05:21:23.456Z,4.97
2023-03-24T05:23:55.299Z,4.38
2023-03-24T05:26:29.969Z,6.22
2023-03-24T05:29:16.905Z,5.50
2023-03-24T05:31:49.073Z,4.25
2023-03-24T05:34:24.382Z,6.53
2023-03-24T05:37:18.401Z,5.40
2023-03-24T05:39:55.574Z,6.03
2023-03-24T05:42:47.480Z,6.50
2023-03-24T05:45:19.554Z,4.80
2023-03-24T05:47:52.873Z,6.25
2023-03-24T05:50:30.972Z,5.32
2023-03-24T05:53:03.517Z,5.28
2023-03-24T05:56:04.466Z,5.10
2023-03-24T05:58:54.046Z,5.03
2023-03-24T06:01:27.095Z,7.95
2023-03-24T06:04:05.747Z,6.95
2023-03-24T06:06:37.587Z,5.97
2023-03-24T06:09:09.331Z,6.15
2023-03-24T06:14:13.366Z,4.82
2023-03-24T06:17:00.730Z,5.45
2023-03-24T06:19:35.416Z,7.63
2023-03-24T06:22:23.245Z,6.55
2023-03-24T06:24:55.280Z,6.25
2023-03-24T06:27:31.967Z,6.20
2023-03-24T06:30:04.253Z,8.52
2023-03-24T06:32:36.195Z,6.20
2023-03-24T06:37:46.419Z,5.28
2023-03-24T06:40:19.120Z,4.47
2023-03-24T06:42:58.022Z,4.38
2023-03-24T06:45:31.883Z,6.68
2023-03-24T06:48:04.008Z,5.72
2023-03-24T06:53:13.183Z,4.10
2023-03-24T06:55:45.245Z,4.57
2023-03-24T06:58:19.353Z,6.70
2023-03-24T07:01:04.289Z,4.45
2023-03-24T07:03:43.717Z,6.28
2023-03-24T07:06:24.302Z,4.88
2023-03-24T07:09:00.283Z,4.35
2023-03-24T07:11:33.902Z,7.25
2023-03-24T07:14:07.462Z,4.10
2023-03-24T07:16:40.199Z,4.38
2023-03-24T07:19:36.467Z,4.07
2023-03-24T07:22:25.881Z,5.85
2023-03-24T07:25:16.506Z,6.60
2023-03-24T07:27:59.159Z,7.32
2023-03-24T07:30:39.826Z,6.28
2023-03-24T07:35:48.815Z,4.82
2023-03-24T07:38:21.250Z,6.45
2023-03-24T07:40:55.538Z,5.32
2023-03-24T07:43:27.200Z,5.97
2023-03-24T07:46:20.971Z,4.30
2023-03-24T07:48:52.488Z,4.07
2023-03-24T07:54:00.041Z,4.55
2023-03-24T07:56:41.618Z,5.35
2023-03-24T07:59:15.409Z,4.13
2023-03-24T08:02:22.592Z,6.25
2023-03-24T08:05:16.020Z,4.55
2023-03-24T08:07:59.794Z,7.07
2023-03-24T08:10:32.945Z,3.70
2023-03-24T08:13:04.940Z,3.30
2023-03-24T08:15:37.433Z,5.97
2023-03-24T08:18:09.200Z,5.28
2023-03-24T08:20:40.657Z,6.28
2023-03-24T08:23:23.255Z,5.97
2023-03-24T08:25:58.796Z,4.95
2023-03-24T08:28:30.305Z,4.47
2023-03-24T08:31:02.313Z,5.20
2023-03-24T08:36:05.007Z,4.47
2023-03-24T08:38:40.432Z,6.78
2023-03-24T08:41:11.890Z,4.80
2023-03-24T08:43:43.316Z,3.50
2023-03-24T08:46:16.858Z,4.93
2023-03-24T08:48:48.448Z,4.50
2023-03-24T08:51:20.357Z,7.15
2023-03-24T08:53:53.919Z,6.47
2023-03-24T08:56:25.911Z,5.00
2023-03-24T08:58:59.512Z,4.80
2023-03-24T09:01:31.724Z,4.60
2023-03-24T09:04:02.967Z,4.80
2023-03-24T09:06:35.015Z,5.18
2023-03-24T09:09:06.688Z,5.30
2023-03-24T09:11:38.672Z,5.85
2023-03-24T09:14:10.357Z,5.63
2023-03-24T09:16:42.195Z,7.22
2023-03-24T09:19:13.981Z,5.90
2023-03-24T09:21:48.601Z,5.05
2023-03-24T09:24:20.456Z,4.97
2023-03-24T09:26:51.707Z,5.18
2023-03-24T09:29:23.184Z,14.60
2023-03-24T09:31:55.519Z,11.57
2023-03-24T09:34:27.478Z,10.52
2023-03-24T09:36:59.073Z,8.10
2023-03-24T09:39:30.454Z,7.95
2023-03-24T09:42:02.178Z,7.18
2023-03-24T09:44:42.798Z,6.53
2023-03-24T09:47:37.117Z,5.70
2023-03-24T09:50:36.884Z,5.97
2023-03-24T09:53:38.744Z,6.88
2023-03-24T09:56:21.402Z,5.90
2023-03-24T09:59:20.285Z,6.68
2023-03-24T10:01:52.358Z,7.20
2023-03-24T10:04:28.440Z,7.70
2023-03-24T10:07:37.058Z,7.32
2023-03-24T10:10:23.474Z,9.50
2023-03-24T10:12:56.305Z,7.40
2023-03-24T10:15:40.778Z,7.18
2023-03-24T10:18:14.975Z,7.03
2023-03-24T10:20:47.781Z,7.72
2023-03-24T10:23:43.045Z,10.73
2023-03-24T10:26:45.261Z,8.82
2023-03-24T10:29:37.614Z,10.73
2023-03-24T10:32:23.627Z,10.07
2023-03-24T10:35:01.028Z,5.78
2023-03-24T10:37:33.485Z,7.00
2023-03-24T10:40:08.387Z,7.25
2023-03-24T10:42:40.316Z,7.22
2023-03-24T10:45:16.828Z,10.18
2023-03-24T10:47:49.608Z,8.57
2023-03-24T10:50:21.331Z,7.47
2023-03-24T10:52:53.977Z,8.50
2023-03-24T10:55:32.905Z,10.93
2023-03-24T10:58:04.432Z,13.02
2023-03-24T11:00:38.231Z,8.10
2023-03-24T11:03:16.468Z,7.75
2023-03-24T11:05:48.316Z,8.35
2023-03-24T11:08:20.102Z,10.70
2023-03-24T11:10:52.241Z,11.50
2023-03-24T11:13:36.560Z,12.40
2023-03-24T11:16:18.640Z,17.25
2023-03-24T11:19:05.318Z,13.10
2023-03-24T11:21:41.160Z,12.77
2023-03-24T11:24:19.007Z,12.48
2023-03-24T11:27:04.771Z,10.93
2023-03-24T11:29:41.449Z,13.50
2023-03-24T11:32:23.381Z,11.90
2023-03-24T11:35:08.872Z,10.95
2023-03-24T11:37:42.889Z,15.10
2023-03-24T11:40:27.601Z,11.50
2023-03-24T11:43:06.306Z,13.55
2023-03-24T11:45:43.916Z,13.05
2023-03-24T11:48:37.078Z,11.70
2023-03-24T11:51:09.931Z,10.68
2023-03-24T11:53:55.311Z,12.27
2023-03-24T11:56:40.631Z,10.75
2023-03-24T11:59:39.471Z,10.50
2023-03-24T12:02:13.792Z,12.95
2023-03-24T12:05:25.784Z,8.43
2023-03-24T12:08:15.128Z,9.32
2023-03-24T12:11:11.237Z,12.18
2023-03-24T12:13:50.478Z,10.38
2023-03-24T12:16:27.640Z,11.95
2023-03-24T12:19:17.076Z,9.93
2023-03-24T12:22:13.680Z,9.07
2023-03-24T12:24:57.001Z,9.23
2023-03-24T12:27:40.584Z,12.43
2023-03-24T12:30:39.140Z,10.35
2023-03-24T12:33:21.389Z,11.98
2023-03-24T12:36:09.883Z,10.93
2023-03-24T12:38:41.196Z,9.82
2023-03-24T12:41:33.798Z,10.05
2023-03-24T12:44:23.087Z,10.60
2023-03-24T12:47:00.460Z,8.52
2023-03-24T12:49:46.777Z,8.77
2023-03-24T12:52:28.597Z,8.88
2023-03-24T12:55:15.751Z,9.95
2023-03-24T12:58:01.785Z,9.02
2023-03-24T13:01:01.128Z,10.88
2023-03-24T13:03:43.014Z,10.82
2023-03-24T13:06:22.964Z,10.82
2023-03-24T13:09:28.432Z,10.77
2023-03-24T13:12:07.489Z,9.73
2023-03-24T13:14:50.870Z,9.82
2023-03-24T13:17:35.694Z,10.82
2023-03-24T13:20:09.852Z,9.48
2023-03-24T13:22:41.105Z,11.55
2023-03-24T13:25:28.134Z,9.65
2023-03-24T13:28:03.287Z,13.52
2023-03-24T13:30:40.812Z,11.23
2023-03-24T13:33:35.060Z,11.25
2023-03-24T13:36:30.023Z,13.90
2023-03-24T13:39:07.090Z,10.43
2023-03-24T13:41:43.982Z,10.57
2023-03-24T13:44:42.890Z,9.77
2023-03-24T13:47:19.522Z,9.98
2023-03-24T13:50:08.876Z,10.55
2023-03-24T13:52:41.606Z,9.82
2023-03-24T13:55:17.758Z,8.63
2023-03-24T13:58:10.239Z,10.02
2023-03-24T14:01:13.687Z,7.93
2023-03-24T14:03:49.493Z,9.50
2023-03-24T14:06:24.309Z,8.00
2023-03-24T14:08:55.545Z,10.38
2023-03-24T14:11:42.878Z,7.68
2023-03-24T14:14:17.794Z,7.85
2023-03-24T14:17:06.844Z,7.75
2023-03-24T14:19:44.556Z,10.75
2023-03-24T14:22:35.346Z,8.95
2023-03-24T14:25:27.955Z,8.75
2023-03-24T14:28:33.632Z,8.90
2023-03-24T14:31:35.697Z,9.50
2023-03-24T14:34:22.646Z,9.68
2023-03-24T14:37:05.268Z,8.80
2023-03-24T14:39:43.057Z,9.25
2023-03-24T14:42:36.081Z,8.35
2023-03-24T14:45:33.351Z,7.30
2023-03-24T14:48:06.073Z,9.10
2023-03-24T14:50:37.552Z,10.40
2023-03-24T14:53:15.013Z,8.45
2023-03-24T14:55:46.687Z,9.85
2023-03-24T14:58:26.908Z,8.65
2023-03-24T15:03:51.886Z,9.90
2023-03-24T15:06:27.683Z,7.32
2023-03-24T15:09:07.446Z,8.98
2023-03-24T15:11:41.623Z,7.18
2023-03-24T15:14:24.632Z,8.23
2023-03-24T15:16:58.192Z,9.77
2023-03-24T15:19:32.191Z,9.25
2023-03-24T15:22:08.249Z,7.00
2023-03-24T15:24:40.664Z,10.35
2023-03-24T15:27:25.533Z,8.40
2023-03-24T15:30:00.507Z,8.40
2023-03-24T15:32:40.536Z,8.05
2023-03-24T15:35:20.261Z,7.82
2023-03-24T15:37:58.848Z,8.00
2023-03-24T15:40:31.976Z,10.80
2023-03-24T15:43:05.386Z,8.88
2023-03-24T15:46:04.787Z,8.70
2023-03-24T15:48:40.995Z,10.15
2023-03-24T15:51:14.308Z,8.90
2023-03-24T15:53:50.537Z,7.50
2023-03-24T15:56:33.289Z,7.47
2023-03-24T15:59:14.201Z,9.18
2023-03-24T16:01:46.304Z,8.43
2023-03-24T16:04:20.654Z,8.02
2023-03-24T16:06:56.494Z,9.25
2023-03-24T16:09:28.543Z,8.13
2023-03-24T16:12:00.338Z,8.30
2023-03-24T16:14:34.145Z,7.30
2023-03-24T16:17:06.030Z,7.53
2023-03-24T16:19:37.557Z,8.15
2023-03-24T16:22:15.387Z,7.68
2023-03-24T16:24:49.540Z,6.07
2023-03-24T16:27:21.177Z,6.40
2023-03-24T16:29:52.660Z,6.32
2023-03-24T16:32:24.052Z,6.22
2023-03-24T16:34:55.358Z,8.18
2023-03-24T16:37:26.870Z,5.63
2023-03-24T16:39:58.469Z,6.55
2023-03-24T16:42:29.463Z,6.43
2023-03-24T16:45:00.569Z,6.73
2023-03-24T16:47:35.835Z,5.40
2023-03-24T16:50:39.961Z,6.35
2023-03-24T16:53:12.075Z,6.43
2023-03-24T16:55:45.916Z,4.80
2023-03-24T16:58:18.167Z,6.30
2023-03-24T17:00:51.512Z,4.88
2023-03-24T17:03:24.903Z,4.93
2023-03-24T17:05:56.920Z,6.10
2023-03-24T17:08:28.692Z,5.47
2023-03-24T17:11:00.192Z,6.97
2023-03-24T17:13:31.514Z,6.82
2023-03-24T17:16:02.976Z,5.15
2023-03-24T17:21:05.915Z,6.38
2023-03-24T17:23:38.470Z,6.40
2023-03-24T17:26:09.980Z,5.72
2023-03-24T17:28:41.731Z,5.55
2023-03-24T17:31:12.970Z,6.47
2023-03-24T17:33:44.567Z,7.03
2023-03-24T17:36:19.279Z,6.07
2023-03-24T17:38:50.860Z,5.15
2023-03-24T17:41:22.446Z,5.70
2023-03-24T17:43:53.820Z,6.13
2023-03-24T17:46:25.326Z,4.80
2023-03-24T17:48:57.035Z,6.10
2023-03-24T17:51:29.658Z,6.85
2023-03-24T17:54:01.405Z,5.40
2023-03-24T17:56:33.030Z,4.80
2023-03-24T17:59:05.174Z,5.10
2023-03-24T18:01:36.556Z,7.75
2023-03-24T18:04:08.413Z,5.38
2023-03-24T18:06:40.129Z,5.78
2023-03-24T18:11:42.682Z,4.90
2023-03-24T18:14:14.225Z,6.63
2023-03-24T18:16:45.696Z,5.60
2023-03-24T18:19:17.795Z,6.78
2023-03-24T18:21:49.096Z,8.23
2023-03-24T18:24:20.284Z,7.18
2023-03-24T18:26:51.251Z,7.63
2023-03-24T18:29:25.743Z,8.57
2023-03-24T18:31:57.388Z,7.97
2023-03-24T18:34:29.510Z,8.70
2023-03-24T18:37:01.877Z,7.63
2023-03-24T18:42:03.507Z,9.45
2023-03-24T18:44:34.694Z,8.68
2023-03-24T18:47:06.231Z,9.50
2023-03-24T18:49:37.728Z,10.75
2023-03-24T18:52:09.878Z,7.35
2023-03-24T18:54:41.291Z,8.07
2023-03-24T18:57:13.561Z,7.30
2023-03-24T18:59:45.138Z,9.13
2023-03-24T19:02:17.037Z,8.25
2023-03-24T19:04:49.682Z,8.75
2023-03-24T19:07:26.095Z,9.07
2023-03-24T19:09:57.975Z,8.82
2023-03-24T19:12:29.313Z,7.63
2023-03-24T19:15:00.505Z,7.68
2023-03-24T19:17:32.472Z,8.18
2023-03-24T19:20:06.540Z,8.65
2023-03-24T19:22:38.192Z,11.15
2023-03-24T19:25:11.000Z,10.48
2023-03-24T19:27:42.888Z,9.75
2023-03-24T19:30:14.976Z,17.15
2023-03-24T19:32:48.243Z,7.05
2023-03-24T19:35:19.711Z,7.88
2023-03-24T19:37:50.860Z,6.93
2023-03-24T19:40:22.109Z,8.50
2023-03-24T19:42:53.710Z,7.63
2023-03-24T19:45:25.177Z,4.93
2023-03-24T19:47:57.250Z,6.03
2023-03-24T19:50:28.683Z,6.07
2023-03-24T19:52:59.655Z,6.03
2023-03-24T19:55:31.460Z,6.13
2023-03-24T20:00:34.187Z,5.82
2023-03-24T20:03:05.655Z,6.47
2023-03-24T20:05:37.726Z,6.70
2023-03-24T20:10:41.767Z,4.78
2023-03-24T20:13:13.496Z,5.20
2023-03-24T20:15:45.125Z,5.65
2023-03-24T20:18:16.742Z,4.93
2023-03-24T20:20:48.547Z,5.65
2023-03-24T20:23:19.547Z,5.07
2023-03-24T20:25:51.395Z,5.88
2023-03-24T20:28:23.048Z,7.13
2023-03-24T20:33:25.429Z,5.75
2023-03-24T20:36:00.012Z,7.90
2023-03-24T20:38:32.347Z,7.43
2023-03-24T20:41:06.770Z,7.28
2023-03-24T20:43:39.429Z,7.65
2023-03-24T20:46:11.831Z,7.93
2023-03-24T20:48:43.456Z,7.97
2023-03-24T20:51:15.007Z,9.02
2023-03-24T20:53:48.003Z,7.43
2023-03-24T20:56:21.012Z,7.13
2023-03-24T20:58:52.174Z,7.05
2023-03-24T21:01:24.385Z,7.20
2023-03-24T21:04:02.108Z,7.20
2023-03-24T21:06:40.268Z,7.72
2023-03-24T21:09:11.590Z,10.18
2023-03-24T21:11:42.973Z,8.45
2023-03-24T21:14:14.296Z,7.40
2023-03-24T21:16:45.805Z,10.10
2023-03-24T21:19:18.037Z,8.52
2023-03-24T21:21:51.318Z,7.63
2023-03-24T21:24:22.815Z,6.53
2023-03-24T21:26:58.378Z,8.23
2023-03-24T21:29:29.933Z,8.45
2023-03-24T21:32:01.569Z,8.23
2023-03-24T21:34:33.049Z,9.50
2023-03-24T21:39:35.429Z,8.07
2023-03-24T21:42:08.431Z,7.40
2023-03-24T21:44:41.219Z,9.65
2023-03-24T21:47:12.727Z,8.50
2023-03-24T21:49:44.469Z,7.90
2023-03-24T21:52:15.921Z,6.65
2023-03-24T21:54:47.620Z,7.32
2023-03-24T21:57:19.331Z,8.95
2023-03-24T21:59:50.578Z,9.32
2023-03-24T22:02:24.171Z,8.48
2023-03-24T22:04:56.496Z,9.63
2023-03-24T22:07:27.943Z,6.57
2023-03-24T22:09:59.145Z,6.78
2023-03-24T22:12:30.506Z,7.22
2023-03-24T22:15:02.523Z,8.07
2023-03-24T22:17:34.153Z,6.85
2023-03-24T22:20:07.760Z,8.20
2023-03-24T22:22:40.714Z,7.80
2023-03-24T22:25:14.773Z,6.63
2023-03-24T22:27:46.526Z,5.35
2023-03-24T22:30:18.007Z,5.75
2023-03-24T22:32:49.572Z,4.63
2023-03-24T22:35:22.791Z,8.70
2023-03-24T22:37:54.401Z,5.75
2023-03-24T22:40:25.961Z,4.93
2023-03-24T22:42:57.286Z,4.90
2023-03-24T22:47:59.696Z,4.72
2023-03-24T22:50:31.143Z,5.45
2023-03-24T22:53:03.086Z,5.50
2023-03-24T22:55:34.365Z,6.75
2023-03-24T22:58:06.058Z,6.07
2023-03-24T23:03:08.247Z,6.47
2023-03-24T23:08:20.903Z,4.45
2023-03-24T23:10:52.729Z,4.65
2023-03-24T23:13:25.178Z,5.65
2023-03-24T23:15:56.919Z,4.65
2023-03-24T23:18:28.758Z,4.22
2023-03-24T23:21:12.531Z,4.40
2023-03-24T23:23:45.850Z,4.07
2023-03-24T23:26:26.144Z,4.45
2023-03-24T23:28:58.448Z,4.32
2023-03-24T23:31:30.506Z,4.90
2023-03-24T23:34:02.360Z,5.82
2023-03-24T23:36:35.587Z,4.65
2023-03-24T23:39:07.311Z,4.25
2023-03-24T23:41:38.597Z,3.90
2023-03-24T23:44:10.510Z,3.63
2023-03-24T23:46:41.930Z,3.83
2023-03-24T23:49:13.621Z,4.75
2023-03-24T23:51:44.994Z,3.33
2023-03-24T23:56:48.442Z,3.42
2023-03-24T23:59:20.129Z,3.78
